sensor_id;sensor_type;location;lat;lon;timestamp;P1;P2;P0
70554;PMS5003;58104;52.744;15.242;2023-12-20T00:00:42;0;0;
70554;PMS5003;58104;52.744;15.242;2023-12-20T00:03:08;0;0;
70554;PMS5003;58104;52.744;15.242;2023-12-20T00:05:33;0;0;
70554;PMS5003;58104;52.744;15.242;2023-12-20T00:07:58;0;0;
70554;PMS5003;58104;52.744;15.242;2023-12-20T00:10:24;0;0;
70554;PMS5003;58104;52.744;15.242;2023-12-20T00:12:49;0;0;
70554;PMS5003;58104;52.744;15.242;2023-12-20T00:15:15;0;0;
70554;PMS5003;58104;52.744;15.242;2023-12-20T00:17:40;0;0;
70554;PMS5003;58104;52.744;15.242;2023-12-20T00:20:06;0;0;
70554;PMS5003;58104;52.744;15.242;2023-12-20T00:22:33;0;0;
70554;PMS5003;58104;52.744;15.242;2023-12-20T00:24:56;0;0;
70554;PMS5003;58104;52.744;15.242;2023-12-20T00:27:21;0;0;
70554;PMS5003;58104;52.744;15.242;2023-12-20T00:29:47;0;0;
70554;PMS5003;58104;52.744;15.242;2023-12-20T00:32:12;0;0;
70554;PMS5003;58104;52.744;15.242;2023-12-20T00:34:38;0;0;
70554;PMS5003;58104;52.744;15.242;2023-12-20T00:37:03;0;0;
70554;PMS5003;58104;52.744;15.242;2023-12-20T00:39:28;0;0;
70554;PMS5003;58104;52.744;15.242;2023-12-20T00:41:54;0;0;
70554;PMS5003;58104;52.744;15.242;2023-12-20T00:44:19;0;0;
70554;PMS5003;58104;52.744;15.242;2023-12-20T00:46:45;0;0;
70554;PMS5003;58104;52.744;15.242;2023-12-20T00:49:10;0;0;
70554;PMS5003;58104;52.744;15.242;2023-12-20T00:51:35;0;0;
70554;PMS5003;58104;52.744;15.242;2023-12-20T00:54:01;0;0;
70554;PMS5003;58104;52.744;15.242;2023-12-20T00:56:26;0;0;
70554;PMS5003;58104;52.744;15.242;2023-12-20T00:58:52;0;0;
70554;PMS5003;58104;52.744;15.242;2023-12-20T01:01:17;0;0;
70554;PMS5003;58104;52.744;15.242;2023-12-20T01:03:42;0;0;
70554;PMS5003;58104;52.744;15.242;2023-12-20T01:06:08;0;0;
70554;PMS5003;58104;52.744;15.242;2023-12-20T01:08:33;0;0;
70554;PMS5003;58104;52.744;15.242;2023-12-20T01:10:58;0;0;
70554;PMS5003;58104;52.744;15.242;2023-12-20T01:13:24;0;0;
70554;PMS5003;58104;52.744;15.242;2023-12-20T01:15:49;0;0;
70554;PMS5003;58104;52.744;15.242;2023-12-20T01:18:15;0;0;
70554;PMS5003;58104;52.744;15.242;2023-12-20T01:20:40;0;0;
70554;PMS5003;58104;52.744;15.242;2023-12-20T01:23:05;0;0;
70554;PMS5003;58104;52.744;15.242;2023-12-20T01:25:31;0;0;
70554;PMS5003;58104;52.744;15.242;2023-12-20T01:27:56;0;0;
70554;PMS5003;58104;52.744;15.242;2023-12-20T01:30:21;0;0;
70554;PMS5003;58104;52.744;15.242;2023-12-20T01:32:47;0;0;
70554;PMS5003;58104;52.744;15.242;2023-12-20T01:35:12;0;0;
70554;PMS5003;58104;52.744;15.242;2023-12-20T01:37:38;0;0;
70554;PMS5003;58104;52.744;15.242;2023-12-20T01:40:04;0;0;
70554;PMS5003;58104;52.744;15.242;2023-12-20T01:42:29;0;0;
70554;PMS5003;58104;52.744;15.242;2023-12-20T01:44:54;0;0;
70554;PMS5003;58104;52.744;15.242;2023-12-20T01:47:19;0;0;
70554;PMS5003;58104;52.744;15.242;2023-12-20T01:49:45;0;0;
70554;PMS5003;58104;52.744;15.242;2023-12-20T01:52:10;0;0;
70554;PMS5003;58104;52.744;15.242;2023-12-20T01:54:35;0;0;
70554;PMS5003;58104;52.744;15.242;2023-12-20T01:57:01;0;0;
70554;PMS5003;58104;52.744;15.242;2023-12-20T01:59:26;0;0;
70554;PMS5003;58104;52.744;15.242;2023-12-20T02:01:51;0;0;
70554;PMS5003;58104;52.744;15.242;2023-12-20T02:04:17;0;0;
70554;PMS5003;58104;52.744;15.242;2023-12-20T02:06:43;0;0;
70554;PMS5003;58104;52.744;15.242;2023-12-20T02:09:08;0;0;
70554;PMS5003;58104;52.744;15.242;2023-12-20T02:11:33;0;0;
70554;PMS5003;58104;52.744;15.242;2023-12-20T02:13:58;1;0;
70554;PMS5003;58104;52.744;15.242;2023-12-20T02:16:24;0;0;
70554;PMS5003;58104;52.744;15.242;2023-12-20T02:18:49;0;0;
70554;PMS5003;58104;52.744;15.242;2023-12-20T02:21:14;0;0;
70554;PMS5003;58104;52.744;15.242;2023-12-20T02:23:40;0;0;
70554;PMS5003;58104;52.744;15.242;2023-12-20T02:26:05;0;0;
70554;PMS5003;58104;52.744;15.242;2023-12-20T02:28:31;0;0;
70554;PMS5003;58104;52.744;15.242;2023-12-20T02:30:56;0;0;
70554;PMS5003;58104;52.744;15.242;2023-12-20T02:33:21;0;0;
70554;PMS5003;58104;52.744;15.242;2023-12-20T02:35:47;0;0;
70554;PMS5003;58104;52.744;15.242;2023-12-20T02:38:12;0;0;
70554;PMS5003;58104;52.744;15.242;2023-12-20T02:40:38;0;0;
70554;PMS5003;58104;52.744;15.242;2023-12-20T02:43:03;0;0;
70554;PMS5003;58104;52.744;15.242;2023-12-20T02:45:28;0;0;
70554;PMS5003;58104;52.744;15.242;2023-12-20T02:47:54;0;0;
70554;PMS5003;58104;52.744;15.242;2023-12-20T02:50:19;0;0;
70554;PMS5003;58104;52.744;15.242;2023-12-20T02:52:45;0;0;
70554;PMS5003;58104;52.744;15.242;2023-12-20T02:55:11;0;0;
70554;PMS5003;58104;52.744;15.242;2023-12-20T02:57:35;0;0;
70554;PMS5003;58104;52.744;15.242;2023-12-20T03:00:01;0;0;
70554;PMS5003;58104;52.744;15.242;2023-12-20T03:02:26;0;0;
70554;PMS5003;58104;52.744;15.242;2023-12-20T03:04:51;0;0;
70554;PMS5003;58104;52.744;15.242;2023-12-20T03:07:17;0;0;
70554;PMS5003;58104;52.744;15.242;2023-12-20T03:09:42;0;0;
70554;PMS5003;58104;52.744;15.242;2023-12-20T03:12:08;0;0;
70554;PMS5003;58104;52.744;15.242;2023-12-20T03:14:33;0;0;
70554;PMS5003;58104;52.744;15.242;2023-12-20T03:16:58;0;0;
70554;PMS5003;58104;52.744;15.242;2023-12-20T03:19:24;0;0;
70554;PMS5003;58104;52.744;15.242;2023-12-20T03:21:49;0;0;
70554;PMS5003;58104;52.744;15.242;2023-12-20T03:24:14;0;0;
70554;PMS5003;58104;52.744;15.242;2023-12-20T03:26:40;0;0;
70554;PMS5003;58104;52.744;15.242;2023-12-20T03:29:05;0;0;
70554;PMS5003;58104;52.744;15.242;2023-12-20T03:31:31;0;0;
70554;PMS5003;58104;52.744;15.242;2023-12-20T03:33:56;0;0;
70554;PMS5003;58104;52.744;15.242;2023-12-20T03:36:21;0;0;
70554;PMS5003;58104;52.744;15.242;2023-12-20T03:38:47;0;0;
70554;PMS5003;58104;52.744;15.242;2023-12-20T03:41:12;0;0;
70554;PMS5003;58104;52.744;15.242;2023-12-20T03:43:38;0;0;
70554;PMS5003;58104;52.744;15.242;2023-12-20T03:46:03;0;0;
70554;PMS5003;58104;52.744;15.242;2023-12-20T03:48:28;0;0;
70554;PMS5003;58104;52.744;15.242;2023-12-20T03:50:54;0;0;
70554;PMS5003;58104;52.744;15.242;2023-12-20T03:53:19;0;0;
70554;PMS5003;58104;52.744;15.242;2023-12-20T03:55:45;0;0;
70554;PMS5003;58104;52.744;15.242;2023-12-20T03:58:10;0;0;
70554;PMS5003;58104;52.744;15.242;2023-12-20T04:00:35;0;0;
70554;PMS5003;58104;52.744;15.242;2023-12-20T04:03:00;0;0;
70554;PMS5003;58104;52.744;15.242;2023-12-20T04:05:26;0;0;
70554;PMS5003;58104;52.744;15.242;2023-12-20T04:07:51;0;0;
70554;PMS5003;58104;52.744;15.242;2023-12-20T04:10:17;0;0;
70554;PMS5003;58104;52.744;15.242;2023-12-20T04:12:42;0;0;
70554;PMS5003;58104;52.744;15.242;2023-12-20T04:15:08;0;0;
70554;PMS5003;58104;52.744;15.242;2023-12-20T04:17:33;0;0;
70554;PMS5003;58104;52.744;15.242;2023-12-20T04:19:58;0;0;
70554;PMS5003;58104;52.744;15.242;2023-12-20T04:22:24;0;0;
70554;PMS5003;58104;52.744;15.242;2023-12-20T04:24:49;0;0;
70554;PMS5003;58104;52.744;15.242;2023-12-20T04:27:14;0;0;
70554;PMS5003;58104;52.744;15.242;2023-12-20T04:29:40;0;0;
70554;PMS5003;58104;52.744;15.242;2023-12-20T04:32:06;0;0;
70554;PMS5003;58104;52.744;15.242;2023-12-20T04:34:30;0;0;
70554;PMS5003;58104;52.744;15.242;2023-12-20T04:36:56;0;0;
70554;PMS5003;58104;52.744;15.242;2023-12-20T04:39:21;0;0;
70554;PMS5003;58104;52.744;15.242;2023-12-20T04:41:47;0;0;
70554;PMS5003;58104;52.744;15.242;2023-12-20T04:44:12;0;0;
70554;PMS5003;58104;52.744;15.242;2023-12-20T04:46:37;0;0;
70554;PMS5003;58104;52.744;15.242;2023-12-20T04:49:03;1;1;
70554;PMS5003;58104;52.744;15.242;2023-12-20T04:51:28;3;1;
70554;PMS5003;58104;52.744;15.242;2023-12-20T04:53:54;1;1;
70554;PMS5003;58104;52.744;15.242;2023-12-20T04:56:19;1;1;
70554;PMS5003;58104;52.744;15.242;2023-12-20T04:58:44;2;2;
70554;PMS5003;58104;52.744;15.242;2023-12-20T05:01:10;2;2;
70554;PMS5003;58104;52.744;15.242;2023-12-20T05:03:35;2;2;
70554;PMS5003;58104;52.744;15.242;2023-12-20T05:06:01;3;3;
70554;PMS5003;58104;52.744;15.242;2023-12-20T05:08:26;3;3;
70554;PMS5003;58104;52.744;15.242;2023-12-20T05:10:52;2;2;
70554;PMS5003;58104;52.744;15.242;2023-12-20T05:13:17;3;3;
70554;PMS5003;58104;52.744;15.242;2023-12-20T05:15:42;4;4;
70554;PMS5003;58104;52.744;15.242;2023-12-20T05:18:08;6;3;
70554;PMS5003;58104;52.744;15.242;2023-12-20T05:20:33;3;3;
70554;PMS5003;58104;52.744;15.242;2023-12-20T05:22:58;5;3;
70554;PMS5003;58104;52.744;15.242;2023-12-20T05:25:24;5;5;
70554;PMS5003;58104;52.744;15.242;2023-12-20T05:27:50;4;4;
70554;PMS5003;58104;52.744;15.242;2023-12-20T05:30:15;7;6;
70554;PMS5003;58104;52.744;15.242;2023-12-20T05:32:41;8;6;
70554;PMS5003;58104;52.744;15.242;2023-12-20T05:35:06;9;7;
70554;PMS5003;58104;52.744;15.242;2023-12-20T05:37:31;6;5;
70554;PMS5003;58104;52.744;15.242;2023-12-20T05:39:57;3;3;
70554;PMS5003;58104;52.744;15.242;2023-12-20T05:42:22;6;4;
70554;PMS5003;58104;52.744;15.242;2023-12-20T05:44:48;4;4;
70554;PMS5003;58104;52.744;15.242;2023-12-20T05:47:13;5;5;
70554;PMS5003;58104;52.744;15.242;2023-12-20T05:49:38;3;3;
70554;PMS5003;58104;52.744;15.242;2023-12-20T05:52:04;1;1;
70554;PMS5003;58104;52.744;15.242;2023-12-20T05:54:29;3;3;
70554;PMS5003;58104;52.744;15.242;2023-12-20T05:56:54;2;2;
70554;PMS5003;58104;52.744;15.242;2023-12-20T05:59:20;3;3;
70554;PMS5003;58104;52.744;15.242;2023-12-20T06:01:45;2;2;
70554;PMS5003;58104;52.744;15.242;2023-12-20T06:04:11;6;2;
70554;PMS5003;58104;52.744;15.242;2023-12-20T06:06:40;2;2;
70554;PMS5003;58104;52.744;15.242;2023-12-20T06:09:02;5;4;
70554;PMS5003;58104;52.744;15.242;2023-12-20T06:11:27;5;4;
70554;PMS5003;58104;52.744;15.242;2023-12-20T06:13:52;2;1;
70554;PMS5003;58104;52.744;15.242;2023-12-20T06:16:18;3;3;
70554;PMS5003;58104;52.744;15.242;2023-12-20T06:18:43;3;3;
70554;PMS5003;58104;52.744;15.242;2023-12-20T06:21:09;2;2;
70554;PMS5003;58104;52.744;15.242;2023-12-20T06:23:34;3;3;
70554;PMS5003;58104;52.744;15.242;2023-12-20T06:25:59;2;2;
70554;PMS5003;58104;52.744;15.242;2023-12-20T06:28:25;3;3;
70554;PMS5003;58104;52.744;15.242;2023-12-20T06:30:50;1;1;
70554;PMS5003;58104;52.744;15.242;2023-12-20T06:33:16;3;3;
70554;PMS5003;58104;52.744;15.242;2023-12-20T06:35:41;3;3;
70554;PMS5003;58104;52.744;15.242;2023-12-20T06:38:06;2;1;
70554;PMS5003;58104;52.744;15.242;2023-12-20T06:40:32;2;2;
70554;PMS5003;58104;52.744;15.242;2023-12-20T06:42:57;4;2;
70554;PMS5003;58104;52.744;15.242;2023-12-20T06:45:22;3;3;
70554;PMS5003;58104;52.744;15.242;2023-12-20T06:47:48;4;4;
70554;PMS5003;58104;52.744;15.242;2023-12-20T06:50:13;3;2;
70554;PMS5003;58104;52.744;15.242;2023-12-20T06:52:39;3;2;
70554;PMS5003;58104;52.744;15.242;2023-12-20T06:55:04;1;1;
70554;PMS5003;58104;52.744;15.242;2023-12-20T06:57:30;6;4;
70554;PMS5003;58104;52.744;15.242;2023-12-20T06:59:55;3;3;
70554;PMS5003;58104;52.744;15.242;2023-12-20T07:02:20;3;3;
70554;PMS5003;58104;52.744;15.242;2023-12-20T07:04:46;2;2;
70554;PMS5003;58104;52.744;15.242;2023-12-20T07:07:11;5;3;
70554;PMS5003;58104;52.744;15.242;2023-12-20T07:09:37;2;2;
70554;PMS5003;58104;52.744;15.242;2023-12-20T07:12:02;3;3;
70554;PMS5003;58104;52.744;15.242;2023-12-20T07:14:27;3;2;
70554;PMS5003;58104;52.744;15.242;2023-12-20T07:16:53;2;2;
70554;PMS5003;58104;52.744;15.242;2023-12-20T07:19:18;3;3;
70554;PMS5003;58104;52.744;15.242;2023-12-20T07:21:44;4;3;
70554;PMS5003;58104;52.744;15.242;2023-12-20T07:24:09;2;2;
70554;PMS5003;58104;52.744;15.242;2023-12-20T07:26:35;3;3;
70554;PMS5003;58104;52.744;15.242;2023-12-20T07:29:00;1;1;
70554;PMS5003;58104;52.744;15.242;2023-12-20T07:31:25;3;2;
70554;PMS5003;58104;52.744;15.242;2023-12-20T07:33:52;3;3;
70554;PMS5003;58104;52.744;15.242;2023-12-20T07:36:16;3;3;
70554;PMS5003;58104;52.744;15.242;2023-12-20T07:38:42;2;2;
70554;PMS5003;58104;52.744;15.242;2023-12-20T07:41:09;3;3;
70554;PMS5003;58104;52.744;15.242;2023-12-20T07:43:33;3;3;
70554;PMS5003;58104;52.744;15.242;2023-12-20T07:48:23;2;2;
70554;PMS5003;58104;52.744;15.242;2023-12-20T07:50:49;4;3;
70554;PMS5003;58104;52.744;15.242;2023-12-20T07:53:14;4;4;
70554;PMS5003;58104;52.744;15.242;2023-12-20T07:55:40;3;3;
70554;PMS5003;58104;52.744;15.242;2023-12-20T07:58:05;3;1;
70554;PMS5003;58104;52.744;15.242;2023-12-20T08:00:30;3;3;
70554;PMS5003;58104;52.744;15.242;2023-12-20T08:02:56;2;2;
70554;PMS5003;58104;52.744;15.242;2023-12-20T08:05:21;5;2;
70554;PMS5003;58104;52.744;15.242;2023-12-20T08:07:47;2;2;
70554;PMS5003;58104;52.744;15.242;2023-12-20T08:10:12;2;2;
70554;PMS5003;58104;52.744;15.242;2023-12-20T08:12:37;3;1;
70554;PMS5003;58104;52.744;15.242;2023-12-20T08:15:03;2;2;
70554;PMS5003;58104;52.744;15.242;2023-12-20T08:17:28;3;2;
70554;PMS5003;58104;52.744;15.242;2023-12-20T08:19:54;3;2;
70554;PMS5003;58104;52.744;15.242;2023-12-20T08:22:19;3;3;
70554;PMS5003;58104;52.744;15.242;2023-12-20T08:24:45;3;3;
70554;PMS5003;58104;52.744;15.242;2023-12-20T08:27:10;3;3;
70554;PMS5003;58104;52.744;15.242;2023-12-20T08:29:35;8;6;
70554;PMS5003;58104;52.744;15.242;2023-12-20T08:32:00;5;3;
70554;PMS5003;58104;52.744;15.242;2023-12-20T08:34:27;4;4;
70554;PMS5003;58104;52.744;15.242;2023-12-20T08:36:51;4;2;
70554;PMS5003;58104;52.744;15.242;2023-12-20T08:39:17;1;1;
70554;PMS5003;58104;52.744;15.242;2023-12-20T08:41:42;3;3;
70554;PMS5003;58104;52.744;15.242;2023-12-20T08:44:08;3;3;
70554;PMS5003;58104;52.744;15.242;2023-12-20T08:46:33;4;3;
70554;PMS5003;58104;52.744;15.242;2023-12-20T08:48:58;5;5;
70554;PMS5003;58104;52.744;15.242;2023-12-20T08:51:24;3;3;
70554;PMS5003;58104;52.744;15.242;2023-12-20T08:53:49;5;3;
70554;PMS5003;58104;52.744;15.242;2023-12-20T08:56:15;4;4;
70554;PMS5003;58104;52.744;15.242;2023-12-20T08:58:40;3;3;
70554;PMS5003;58104;52.744;15.242;2023-12-20T09:01:05;6;3;
70554;PMS5003;58104;52.744;15.242;2023-12-20T09:03:31;5;5;
70554;PMS5003;58104;52.744;15.242;2023-12-20T09:05:56;5;4;
70554;PMS5003;58104;52.744;15.242;2023-12-20T09:08:21;4;2;
70554;PMS5003;58104;52.744;15.242;2023-12-20T09:10:47;5;3;
70554;PMS5003;58104;52.744;15.242;2023-12-20T09:13:12;3;3;
70554;PMS5003;58104;52.744;15.242;2023-12-20T09:15:38;6;5;
70554;PMS5003;58104;52.744;15.242;2023-12-20T09:18:03;5;3;
70554;PMS5003;58104;52.744;15.242;2023-12-20T09:20:28;8;6;
70554;PMS5003;58104;52.744;15.242;2023-12-20T09:22:54;5;4;
70554;PMS5003;58104;52.744;15.242;2023-12-20T09:25:19;5;5;
70554;PMS5003;58104;52.744;15.242;2023-12-20T09:27:45;4;3;
70554;PMS5003;58104;52.744;15.242;2023-12-20T09:30:10;6;4;
70554;PMS5003;58104;52.744;15.242;2023-12-20T09:32:36;5;5;
70554;PMS5003;58104;52.744;15.242;2023-12-20T09:35:01;4;4;
70554;PMS5003;58104;52.744;15.242;2023-12-20T09:37:26;4;4;
70554;PMS5003;58104;52.744;15.242;2023-12-20T09:39:52;5;5;
70554;PMS5003;58104;52.744;15.242;2023-12-20T09:42:20;6;6;
70554;PMS5003;58104;52.744;15.242;2023-12-20T09:44:43;3;3;
70554;PMS5003;58104;52.744;15.242;2023-12-20T09:47:08;5;5;
70554;PMS5003;58104;52.744;15.242;2023-12-20T09:49:33;6;3;
70554;PMS5003;58104;52.744;15.242;2023-12-20T09:51:59;6;6;
70554;PMS5003;58104;52.744;15.242;2023-12-20T09:54:24;5;4;
70554;PMS5003;58104;52.744;15.242;2023-12-20T09:56:50;5;4;
70554;PMS5003;58104;52.744;15.242;2023-12-20T09:59:15;4;3;
70554;PMS5003;58104;52.744;15.242;2023-12-20T10:01:41;5;5;
70554;PMS5003;58104;52.744;15.242;2023-12-20T10:04:06;6;5;
70554;PMS5003;58104;52.744;15.242;2023-12-20T10:06:31;4;3;
70554;PMS5003;58104;52.744;15.242;2023-12-20T10:08:57;5;4;
70554;PMS5003;58104;52.744;15.242;2023-12-20T10:11:22;2;2;
70554;PMS5003;58104;52.744;15.242;2023-12-20T10:13:47;9;6;
70554;PMS5003;58104;52.744;15.242;2023-12-20T10:16:13;5;5;
70554;PMS5003;58104;52.744;15.242;2023-12-20T10:18:38;5;5;
70554;PMS5003;58104;52.744;15.242;2023-12-20T10:21:04;4;4;
70554;PMS5003;58104;52.744;15.242;2023-12-20T10:23:29;5;3;
70554;PMS5003;58104;52.744;15.242;2023-12-20T10:25:56;4;4;
70554;PMS5003;58104;52.744;15.242;2023-12-20T10:28:20;6;6;
70554;PMS5003;58104;52.744;15.242;2023-12-20T10:30:45;3;3;
70554;PMS5003;58104;52.744;15.242;2023-12-20T10:33:11;4;4;
70554;PMS5003;58104;52.744;15.242;2023-12-20T10:35:37;3;3;
70554;PMS5003;58104;52.744;15.242;2023-12-20T10:38:03;7;4;
70554;PMS5003;58104;52.744;15.242;2023-12-20T10:40:26;8;8;
70554;PMS5003;58104;52.744;15.242;2023-12-20T10:42:52;5;4;
70554;PMS5003;58104;52.744;15.242;2023-12-20T10:45:17;6;5;
70554;PMS5003;58104;52.744;15.242;2023-12-20T10:47:44;4;4;
70554;PMS5003;58104;52.744;15.242;2023-12-20T10:50:08;6;4;
70554;PMS5003;58104;52.744;15.242;2023-12-20T10:52:33;7;6;
70554;PMS5003;58104;52.744;15.242;2023-12-20T10:54:59;7;3;
70554;PMS5003;58104;52.744;15.242;2023-12-20T10:57:24;5;5;
70554;PMS5003;58104;52.744;15.242;2023-12-20T10:59:50;3;3;
70554;PMS5003;58104;52.744;15.242;2023-12-20T11:02:15;7;5;
70554;PMS5003;58104;52.744;15.242;2023-12-20T11:04:43;5;5;
70554;PMS5003;58104;52.744;15.242;2023-12-20T11:07:08;7;5;
70554;PMS5003;58104;52.744;15.242;2023-12-20T11:09:33;4;4;
70554;PMS5003;58104;52.744;15.242;2023-12-20T11:12:01;7;6;
70554;PMS5003;58104;52.744;15.242;2023-12-20T11:14:23;3;3;
70554;PMS5003;58104;52.744;15.242;2023-12-20T11:16:47;6;5;
70554;PMS5003;58104;52.744;15.242;2023-12-20T11:19:13;6;6;
70554;PMS5003;58104;52.744;15.242;2023-12-20T11:21:38;6;6;
70554;PMS5003;58104;52.744;15.242;2023-12-20T11:24:04;5;5;
70554;PMS5003;58104;52.744;15.242;2023-12-20T11:26:29;5;5;
70554;PMS5003;58104;52.744;15.242;2023-12-20T11:28:54;4;4;
70554;PMS5003;58104;52.744;15.242;2023-12-20T11:31:20;4;4;
70554;PMS5003;58104;52.744;15.242;2023-12-20T11:33:45;6;5;
70554;PMS5003;58104;52.744;15.242;2023-12-20T11:36:13;6;3;
70554;PMS5003;58104;52.744;15.242;2023-12-20T11:38:36;4;4;
70554;PMS5003;58104;52.744;15.242;2023-12-20T11:41:01;3;3;
70554;PMS5003;58104;52.744;15.242;2023-12-20T11:43:30;2;2;
70554;PMS5003;58104;52.744;15.242;2023-12-20T11:45:52;5;3;
70554;PMS5003;58104;52.744;15.242;2023-12-20T11:48:17;5;4;
70554;PMS5003;58104;52.744;15.242;2023-12-20T11:50:42;6;6;
70554;PMS5003;58104;52.744;15.242;2023-12-20T11:53:08;11;10;
70554;PMS5003;58104;52.744;15.242;2023-12-20T11:55:33;6;6;
70554;PMS5003;58104;52.744;15.242;2023-12-20T11:57:58;4;4;
70554;PMS5003;58104;52.744;15.242;2023-12-20T12:00:24;6;6;
70554;PMS5003;58104;52.744;15.242;2023-12-20T12:02:55;2;2;
70554;PMS5003;58104;52.744;15.242;2023-12-20T12:05:14;6;6;
70554;PMS5003;58104;52.744;15.242;2023-12-20T12:07:40;6;4;
70554;PMS5003;58104;52.744;15.242;2023-12-20T12:10:06;8;6;
70554;PMS5003;58104;52.744;15.242;2023-12-20T12:12:31;5;4;
70554;PMS5003;58104;52.744;15.242;2023-12-20T12:14:56;7;5;
70554;PMS5003;58104;52.744;15.242;2023-12-20T12:17:21;7;6;
70554;PMS5003;58104;52.744;15.242;2023-12-20T12:19:47;8;6;
70554;PMS5003;58104;52.744;15.242;2023-12-20T12:22:13;9;6;
70554;PMS5003;58104;52.744;15.242;2023-12-20T12:24:38;6;6;
70554;PMS5003;58104;52.744;15.242;2023-12-20T12:27:05;8;6;
70554;PMS5003;58104;52.744;15.242;2023-12-20T12:29:29;6;5;
70554;PMS5003;58104;52.744;15.242;2023-12-20T12:31:54;3;3;
70554;PMS5003;58104;52.744;15.242;2023-12-20T12:34:19;4;4;
70554;PMS5003;58104;52.744;15.242;2023-12-20T12:36:45;5;4;
70554;PMS5003;58104;52.744;15.242;2023-12-20T12:39:12;4;4;
70554;PMS5003;58104;52.744;15.242;2023-12-20T12:41:36;7;7;
70554;PMS5003;58104;52.744;15.242;2023-12-20T12:44:02;6;5;
70554;PMS5003;58104;52.744;15.242;2023-12-20T12:46:27;5;5;
70554;PMS5003;58104;52.744;15.242;2023-12-20T12:48:53;5;4;
70554;PMS5003;58104;52.744;15.242;2023-12-20T12:51:18;5;5;
70554;PMS5003;58104;52.744;15.242;2023-12-20T12:53:43;4;4;
70554;PMS5003;58104;52.744;15.242;2023-12-20T12:56:09;6;6;
70554;PMS5003;58104;52.744;15.242;2023-12-20T12:58:34;5;5;
70554;PMS5003;58104;52.744;15.242;2023-12-20T13:01:00;4;4;
70554;PMS5003;58104;52.744;15.242;2023-12-20T13:03:25;5;3;
70554;PMS5003;58104;52.744;15.242;2023-12-20T13:05:51;9;5;
70554;PMS5003;58104;52.744;15.242;2023-12-20T13:08:16;4;4;
70554;PMS5003;58104;52.744;15.242;2023-12-20T13:10:42;4;4;
70554;PMS5003;58104;52.744;15.242;2023-12-20T13:13:08;6;5;
70554;PMS5003;58104;52.744;15.242;2023-12-20T13:15:33;4;4;
70554;PMS5003;58104;52.744;15.242;2023-12-20T13:17:58;5;5;
70554;PMS5003;58104;52.744;15.242;2023-12-20T13:20:23;5;5;
70554;PMS5003;58104;52.744;15.242;2023-12-20T13:22:49;5;5;
70554;PMS5003;58104;52.744;15.242;2023-12-20T13:25:17;6;4;
70554;PMS5003;58104;52.744;15.242;2023-12-20T13:27:41;5;5;
70554;PMS5003;58104;52.744;15.242;2023-12-20T13:31:29;6;4;
70554;PMS5003;58104;52.744;15.242;2023-12-20T13:35:19;6;4;
70554;PMS5003;58104;52.744;15.242;2023-12-20T13:40:55;3;3;
70554;PMS5003;58104;52.744;15.242;2023-12-20T13:48:43;4;4;
70554;PMS5003;58104;52.744;15.242;2023-12-20T13:51:09;6;6;
70554;PMS5003;58104;52.744;15.242;2023-12-20T13:55:16;3;3;
70554;PMS5003;58104;52.744;15.242;2023-12-20T13:58:05;3;3;
70554;PMS5003;58104;52.744;15.242;2023-12-20T14:02:19;4;4;
70554;PMS5003;58104;52.744;15.242;2023-12-20T14:04:45;6;6;
70554;PMS5003;58104;52.744;15.242;2023-12-20T14:07:11;5;5;
70554;PMS5003;58104;52.744;15.242;2023-12-20T14:09:37;5;5;
70554;PMS5003;58104;52.744;15.242;2023-12-20T14:12:04;1;1;
70554;PMS5003;58104;52.744;15.242;2023-12-20T14:14:29;5;5;
70554;PMS5003;58104;52.744;15.242;2023-12-20T14:16:54;4;4;
70554;PMS5003;58104;52.744;15.242;2023-12-20T14:19:19;3;3;
70554;PMS5003;58104;52.744;15.242;2023-12-20T14:21:45;4;4;
70554;PMS5003;58104;52.744;15.242;2023-12-20T14:24:10;7;5;
70554;PMS5003;58104;52.744;15.242;2023-12-20T14:26:36;5;4;
70554;PMS5003;58104;52.744;15.242;2023-12-20T14:29:01;4;4;
70554;PMS5003;58104;52.744;15.242;2023-12-20T14:31:27;4;4;
70554;PMS5003;58104;52.744;15.242;2023-12-20T14:33:52;5;5;
70554;PMS5003;58104;52.744;15.242;2023-12-20T14:36:17;4;4;
70554;PMS5003;58104;52.744;15.242;2023-12-20T14:38:43;3;3;
70554;PMS5003;58104;52.744;15.242;2023-12-20T14:41:08;6;5;
70554;PMS5003;58104;52.744;15.242;2023-12-20T14:43:34;4;2;
70554;PMS5003;58104;52.744;15.242;2023-12-20T14:45:59;5;4;
70554;PMS5003;58104;52.744;15.242;2023-12-20T14:48:25;4;3;
70554;PMS5003;58104;52.744;15.242;2023-12-20T14:50:50;4;4;
70554;PMS5003;58104;52.744;15.242;2023-12-20T14:53:15;6;5;
70554;PMS5003;58104;52.744;15.242;2023-12-20T14:55:41;6;5;
70554;PMS5003;58104;52.744;15.242;2023-12-20T14:58:06;4;4;
70554;PMS5003;58104;52.744;15.242;2023-12-20T15:00:32;5;5;
70554;PMS5003;58104;52.744;15.242;2023-12-20T15:02:57;3;3;
70554;PMS5003;58104;52.744;15.242;2023-12-20T15:05:22;4;3;
70554;PMS5003;58104;52.744;15.242;2023-12-20T15:07:48;2;2;
70554;PMS5003;58104;52.744;15.242;2023-12-20T15:10:13;3;3;
70554;PMS5003;58104;52.744;15.242;2023-12-20T15:12:39;5;5;
70554;PMS5003;58104;52.744;15.242;2023-12-20T15:15:05;5;3;
70554;PMS5003;58104;52.744;15.242;2023-12-20T15:17:30;3;3;
70554;PMS5003;58104;52.744;15.242;2023-12-20T15:19:55;4;2;
70554;PMS5003;58104;52.744;15.242;2023-12-20T15:22:20;3;3;
70554;PMS5003;58104;52.744;15.242;2023-12-20T15:24:46;3;3;
70554;PMS5003;58104;52.744;15.242;2023-12-20T15:27:12;3;3;
70554;PMS5003;58104;52.744;15.242;2023-12-20T15:29:37;4;4;
70554;PMS5003;58104;52.744;15.242;2023-12-20T15:32:02;3;3;
70554;PMS5003;58104;52.744;15.242;2023-12-20T15:34:27;4;3;
70554;PMS5003;58104;52.744;15.242;2023-12-20T15:36:53;5;5;
70554;PMS5003;58104;52.744;15.242;2023-12-20T15:39:18;6;4;
70554;PMS5003;58104;52.744;15.242;2023-12-20T15:41:44;5;4;
70554;PMS5003;58104;52.744;15.242;2023-12-20T15:44:09;3;3;
70554;PMS5003;58104;52.744;15.242;2023-12-20T15:46:35;5;4;
70554;PMS5003;58104;52.744;15.242;2023-12-20T15:49:00;4;4;
70554;PMS5003;58104;52.744;15.242;2023-12-20T15:51:25;3;2;
70554;PMS5003;58104;52.744;15.242;2023-12-20T15:53:51;5;2;
70554;PMS5003;58104;52.744;15.242;2023-12-20T15:56:16;4;3;
70554;PMS5003;58104;52.744;15.242;2023-12-20T15:58:42;5;4;
70554;PMS5003;58104;52.744;15.242;2023-12-20T16:01:07;5;4;
70554;PMS5003;58104;52.744;15.242;2023-12-20T16:03:33;3;3;
70554;PMS5003;58104;52.744;15.242;2023-12-20T16:05:58;3;3;
70554;PMS5003;58104;52.744;15.242;2023-12-20T16:08:23;4;4;
70554;PMS5003;58104;52.744;15.242;2023-12-20T16:10:49;3;3;
70554;PMS5003;58104;52.744;15.242;2023-12-20T16:13:14;4;4;
70554;PMS5003;58104;52.744;15.242;2023-12-20T16:15:40;2;2;
70554;PMS5003;58104;52.744;15.242;2023-12-20T16:18:05;2;2;
70554;PMS5003;58104;52.744;15.242;2023-12-20T16:20:30;4;4;
70554;PMS5003;58104;52.744;15.242;2023-12-20T16:22:56;4;3;
70554;PMS5003;58104;52.744;15.242;2023-12-20T16:25:21;4;2;
70554;PMS5003;58104;52.744;15.242;2023-12-20T16:27:47;3;3;
70554;PMS5003;58104;52.744;15.242;2023-12-20T16:30:12;2;2;
70554;PMS5003;58104;52.744;15.242;2023-12-20T16:32:37;2;2;
70554;PMS5003;58104;52.744;15.242;2023-12-20T16:35:03;2;2;
70554;PMS5003;58104;52.744;15.242;2023-12-20T16:37:28;3;2;